Portada
METAR-TAF:

METAR-TAF

Aeropuertos :

Souillac

Brive-la-Gaillarde, Francia

latitud: 45-02-28N, longitud: 001-28-59E, altitud: 311 m

Observación

El informe se hizo hace 27 minutos, a las 21:30 UTC
Viento 3 kt con dirección variable
Temperatura 13°C
Humedad 88%
Presión 1015 hPa
Visibilidad 10 km o más
Cielo cubierto a una altura de 4500 ft

METAR: LFSL 162130Z AUTO VRB03KT 9999 OVC045 13/11 Q1015

Hora: 23:57 (21:57 UTC)

Pronóstico

El informe se hizo hace 7 horas y 57 minutos, a las 14:00 UTC
Pronóstico válido del 16 a las 15 UTC al 16 a las 24 UTC
Viento 8 kt del sur-sureste
Visibilidad 10 km o más
sin nubes por debajo de 1500 m y sin presencia de cumulonimbus.
Temporalmente
del 16 a las 15 UTC al 16 a las 20 UTC
Nubes dispersas a una altura de 1600 ft
Cielo nuboso a una altura de 4000 ft
Cielo cubierto a una altura de 6000 ft
lluvia ligera

TAF: LFSL 161400Z 1615/1624 16008KT CAVOK TEMPO 1615/1620 -RA SCT016 BKN040 OVC060

Observaciones y pronósticos meteorológicos de más de 4000 aeropuertos (mensajes METAR y TAF).

Los puntos amarillos y rojos representan las estaciones disponibles.

Ponga el ratón en el punto deseado para ver el nombre de la estación.

Haga clic para ver las observaciones y los pronósticos meteorológicos.

Para cambiar el mapa : haga clic en los botones verdes con una cruz de color negro para hacer un zoom, en el botón verde con un guión para alejar o en las flechas verdes para mapas adyacentes.


METAR-TAF: